createdAt,value
2019-01-28T00:01:35.588Z,92.30
2019-01-28T00:04:07.526Z,92.30
2019-01-28T00:06:38.948Z,92.30
2019-01-28T00:09:10.396Z,92.30
2019-01-28T00:11:41.895Z,92.30
2019-01-28T00:14:13.498Z,92.30
2019-01-28T00:16:44.935Z,92.30
2019-01-28T00:19:16.481Z,92.70
2019-01-28T00:21:48.078Z,92.40
2019-01-28T00:24:19.592Z,92.50
2019-01-28T00:26:51.001Z,92.50
2019-01-28T00:29:22.475Z,92.40
2019-01-28T00:31:53.977Z,92.30
2019-01-28T00:34:26.455Z,92.20
2019-01-28T00:36:57.965Z,92.10
2019-01-28T00:39:29.429Z,92.20
2019-01-28T00:42:00.850Z,92.30
2019-01-28T00:44:32.355Z,92.30
2019-01-28T00:47:03.984Z,92.30
2019-01-28T00:49:35.450Z,92.20
2019-01-28T00:52:06.922Z,92.20
2019-01-28T00:54:38.464Z,92.00
2019-01-28T00:57:09.929Z,92.00
2019-01-28T00:59:41.492Z,92.00
2019-01-28T01:02:12.928Z,92.20
2019-01-28T01:04:44.404Z,92.30
2019-01-28T01:07:16.565Z,92.40
2019-01-28T01:09:48.129Z,92.40
2019-01-28T01:12:19.655Z,92.40
2019-01-28T01:14:51.244Z,92.40
2019-01-28T01:17:22.720Z,92.40
2019-01-28T01:19:54.244Z,92.40
2019-01-28T01:22:25.710Z,92.40
2019-01-28T01:24:57.183Z,92.30
2019-01-28T01:27:28.632Z,92.30
2019-01-28T01:30:00.223Z,92.20
2019-01-28T01:32:31.699Z,91.90
2019-01-28T01:35:03.152Z,91.90
2019-01-28T01:37:34.640Z,92.20
2019-01-28T01:40:07.939Z,91.90
2019-01-28T01:42:39.396Z,91.90
2019-01-28T01:45:12.356Z,91.90
2019-01-28T01:47:44.846Z,92.00
2019-01-28T01:50:16.336Z,92.20
2019-01-28T01:52:47.819Z,92.50
2019-01-28T01:55:19.287Z,92.70
2019-01-28T01:57:50.793Z,92.70
2019-01-28T02:00:22.324Z,92.90
2019-01-28T02:02:53.857Z,93.00
2019-01-28T02:05:25.285Z,93.20
2019-01-28T02:07:56.769Z,93.50
2019-01-28T02:10:28.264Z,93.60
2019-01-28T02:12:59.705Z,93.90
2019-01-28T02:15:31.156Z,94.00
2019-01-28T02:18:02.599Z,94.10
2019-01-28T02:20:34.055Z,94.10
2019-01-28T02:23:05.841Z,94.20
2019-01-28T02:25:37.271Z,94.20
2019-01-28T02:28:08.787Z,94.30
2019-01-28T02:30:40.377Z,94.40
2019-01-28T02:33:11.807Z,94.40
2019-01-28T02:35:43.345Z,94.50
2019-01-28T02:38:14.769Z,94.50
2019-01-28T02:40:46.329Z,94.60
2019-01-28T02:43:17.783Z,94.60
2019-01-28T02:45:49.292Z,94.60
2019-01-28T02:48:20.744Z,94.70
2019-01-28T02:50:52.257Z,94.70
2019-01-28T02:53:23.659Z,94.80
2019-01-28T02:55:55.237Z,94.70
2019-01-28T02:58:26.684Z,94.80
2019-01-28T03:00:58.209Z,94.80
2019-01-28T03:03:29.816Z,94.80
2019-01-28T03:06:01.340Z,94.70
2019-01-28T03:08:32.748Z,94.80
2019-01-28T03:11:04.322Z,94.80
2019-01-28T03:13:35.751Z,94.80
2019-01-28T03:16:07.318Z,95.00
2019-01-28T03:18:38.797Z,95.10
2019-01-28T03:21:10.246Z,95.20
2019-01-28T03:23:41.740Z,95.20
2019-01-28T03:26:13.233Z,95.20
2019-01-28T03:28:44.786Z,95.20
2019-01-28T03:31:16.339Z,95.20
2019-01-28T03:33:47.920Z,95.10
2019-01-28T03:36:19.350Z,95.10
2019-01-28T03:38:50.763Z,95.10
2019-01-28T03:41:22.252Z,95.50
2019-01-28T03:43:54.028Z,95.30
2019-01-28T03:46:25.495Z,95.30
2019-01-28T03:48:56.913Z,95.50
2019-01-28T03:51:28.441Z,95.50
2019-01-28T03:54:00.135Z,95.60
2019-01-28T03:56:31.566Z,95.60
2019-01-28T03:59:03.073Z,95.60
2019-01-28T04:01:34.553Z,95.70
2019-01-28T04:04:06.201Z,95.70
2019-01-28T04:06:37.636Z,95.70
2019-01-28T04:09:10.305Z,95.70
2019-01-28T04:11:41.982Z,95.70
2019-01-28T04:14:13.499Z,95.70
2019-01-28T04:16:45.092Z,95.80
2019-01-28T04:19:16.537Z,95.70
2019-01-28T04:21:48.119Z,95.70
2019-01-28T04:24:19.584Z,95.70
2019-01-28T04:26:52.079Z,95.70
2019-01-28T04:29:23.512Z,95.70
2019-01-28T04:31:55.328Z,95.60
2019-01-28T04:34:26.754Z,95.60
2019-01-28T04:36:58.260Z,95.60
2019-01-28T04:39:29.697Z,95.60
2019-01-28T04:42:01.178Z,95.50
2019-01-28T04:44:32.682Z,95.50
2019-01-28T04:47:04.246Z,95.50
2019-01-28T04:49:36.050Z,95.50
2019-01-28T04:52:07.822Z,95.40
2019-01-28T04:54:40.467Z,95.40
2019-01-28T04:57:11.925Z,95.30
2019-01-28T04:59:43.420Z,95.20
2019-01-28T05:02:14.979Z,95.30
2019-01-28T05:04:46.430Z,95.40
2019-01-28T05:07:17.995Z,95.30
2019-01-28T05:09:56.438Z,95.20
2019-01-28T05:12:27.964Z,95.20
2019-01-28T05:14:59.425Z,95.10
2019-01-28T05:17:30.930Z,95.20
2019-01-28T05:20:02.488Z,95.20
2019-01-28T05:22:34.066Z,95.20
2019-01-28T05:25:06.249Z,99.90
2019-01-28T05:27:37.763Z,95.20
2019-01-28T05:30:12.538Z,95.20
2019-01-28T05:32:44.047Z,95.10
2019-01-28T05:35:16.796Z,95.10
2019-01-28T05:37:48.321Z,95.10
2019-01-28T05:40:21.452Z,95.00
2019-01-28T05:42:53.119Z,94.90
2019-01-28T05:45:24.796Z,94.90
2019-01-28T05:47:56.392Z,94.90
2019-01-28T05:50:29.275Z,94.90
2019-01-28T05:53:00.929Z,94.90
2019-01-28T05:55:32.367Z,94.80
2019-01-28T05:58:03.863Z,95.00
2019-01-28T06:00:43.935Z,94.90
2019-01-28T06:03:15.653Z,94.90
2019-01-28T06:05:47.131Z,94.90
2019-01-28T06:08:18.558Z,94.90
2019-01-28T06:10:50.061Z,94.90
2019-01-28T06:13:21.504Z,94.90
2019-01-28T06:15:53.009Z,95.00
2019-01-28T06:18:24.548Z,95.10
2019-01-28T06:20:56.020Z,95.10
2019-01-28T06:23:28.707Z,95.20
2019-01-28T06:26:00.227Z,95.30
2019-01-28T06:28:31.673Z,95.30
2019-01-28T06:31:03.166Z,95.50
2019-01-28T06:33:34.804Z,95.50
2019-01-28T06:36:06.255Z,95.60
2019-01-28T06:38:37.763Z,95.60
2019-01-28T06:41:09.172Z,95.70
2019-01-28T06:43:40.670Z,95.70
2019-01-28T06:46:12.116Z,95.70
2019-01-28T06:48:43.542Z,95.60
2019-01-28T06:51:15.020Z,95.60
2019-01-28T06:53:46.645Z,95.60
2019-01-28T06:56:18.163Z,95.50
2019-01-28T06:58:49.601Z,95.50
2019-01-28T07:01:21.048Z,95.60
2019-01-28T07:03:52.561Z,95.70
2019-01-28T07:06:24.173Z,95.80
2019-01-28T07:08:55.666Z,95.90
2019-01-28T07:11:27.203Z,96.00
2019-01-28T07:13:58.672Z,96.00
2019-01-28T07:16:30.074Z,95.90
2019-01-28T07:19:01.569Z,95.70
2019-01-28T07:21:33.085Z,95.60
2019-01-28T07:24:04.904Z,95.50
2019-01-28T07:26:36.384Z,95.40
2019-01-28T07:29:07.836Z,95.10
2019-01-28T07:31:39.305Z,94.80
2019-01-28T07:34:10.797Z,94.70
2019-01-28T07:36:42.430Z,95.10
2019-01-28T07:39:13.900Z,94.70
2019-01-28T07:41:45.402Z,94.60
2019-01-28T07:44:16.904Z,94.50
2019-01-28T07:46:48.574Z,94.40
2019-01-28T07:49:20.217Z,94.30
2019-01-28T07:51:51.902Z,94.30
2019-01-28T07:54:23.421Z,94.40
2019-01-28T07:56:54.948Z,94.50
2019-01-28T07:59:26.398Z,94.40
2019-01-28T08:01:57.808Z,94.30
2019-01-28T08:04:29.310Z,94.10
2019-01-28T08:07:01.672Z,94.00
2019-01-28T08:09:33.169Z,93.90
2019-01-28T08:12:04.698Z,93.90
2019-01-28T08:14:36.277Z,93.80
2019-01-28T08:17:07.742Z,93.80
2019-01-28T08:19:39.269Z,93.90
2019-01-28T08:22:12.395Z,93.80
2019-01-28T08:24:44.000Z,93.50
2019-01-28T08:27:15.530Z,93.50
2019-01-28T08:29:47.032Z,93.40
2019-01-28T08:32:18.509Z,93.30
2019-01-28T08:34:50.041Z,93.30
2019-01-28T08:37:21.516Z,93.20
2019-01-28T08:39:53.020Z,93.20
2019-01-28T08:42:24.492Z,93.30
2019-01-28T08:44:56.217Z,93.30
2019-01-28T08:47:27.702Z,93.30
2019-01-28T08:49:59.295Z,93.20
2019-01-28T08:52:30.779Z,93.20
2019-01-28T08:55:02.258Z,93.30
2019-01-28T08:57:33.784Z,93.20
2019-01-28T09:00:08.138Z,93.20
2019-01-28T09:02:39.673Z,93.20
2019-01-28T09:05:11.610Z,93.20
2019-01-28T09:07:44.519Z,93.20
2019-01-28T09:10:16.893Z,93.10
2019-01-28T09:12:48.316Z,93.20
2019-01-28T09:15:20.077Z,93.30
2019-01-28T09:17:51.691Z,93.20
2019-01-28T09:20:24.339Z,93.20
2019-01-28T09:22:55.793Z,93.20
2019-01-28T09:25:27.245Z,93.00
2019-01-28T09:27:58.756Z,92.80
2019-01-28T09:30:31.780Z,92.80
2019-01-28T09:33:03.316Z,92.80
2019-01-28T09:35:35.013Z,92.80
2019-01-28T09:38:06.802Z,92.70
2019-01-28T09:40:38.695Z,92.70
2019-01-28T09:43:10.410Z,92.70
2019-01-28T09:45:43.440Z,92.50
2019-01-28T09:48:16.144Z,92.50
2019-01-28T09:50:47.828Z,92.60
2019-01-28T09:53:19.253Z,92.50
2019-01-28T09:55:50.768Z,92.40
2019-01-28T09:58:22.246Z,92.20
2019-01-28T10:00:53.758Z,92.10
2019-01-28T10:03:25.168Z,91.90
2019-01-28T10:05:56.572Z,91.80
2019-01-28T10:08:28.036Z,91.60
2019-01-28T10:10:59.567Z,91.30
2019-01-28T10:13:31.001Z,91.20
2019-01-28T10:16:02.811Z,90.90
2019-01-28T10:18:41.605Z,90.60
2019-01-28T10:21:07.563Z,90.60
2019-01-28T10:23:39.013Z,90.10
2019-01-28T10:26:10.440Z,89.60
2019-01-28T10:28:41.837Z,89.40
2019-01-28T10:31:13.316Z,89.00
2019-01-28T10:33:44.992Z,88.40
2019-01-28T10:36:16.486Z,88.00
2019-01-28T10:38:48.066Z,87.30
2019-01-28T10:41:19.475Z,86.70
2019-01-28T10:43:50.874Z,86.40
2019-01-28T10:46:22.434Z,86.00
2019-01-28T10:48:53.937Z,85.70
2019-01-28T10:51:25.568Z,85.50
2019-01-28T10:53:57.056Z,84.70
2019-01-28T10:56:28.548Z,84.60
2019-01-28T10:59:00.064Z,84.50
2019-01-28T11:01:31.599Z,84.00
2019-01-28T11:04:03.203Z,83.70
2019-01-28T11:06:34.645Z,83.00
2019-01-28T11:09:08.162Z,82.40
2019-01-28T11:11:39.885Z,82.60
2019-01-28T11:14:11.424Z,82.40
2019-01-28T11:16:43.083Z,82.20
2019-01-28T11:19:14.575Z,81.60
2019-01-28T11:21:46.080Z,81.40
2019-01-28T11:24:17.510Z,81.30
2019-01-28T11:26:49.232Z,81.40
2019-01-28T11:29:20.908Z,81.40
2019-01-28T11:31:52.466Z,81.50
2019-01-28T11:34:24.000Z,81.30
2019-01-28T11:36:55.548Z,80.60
2019-01-28T11:39:26.987Z,80.30
2019-01-28T11:41:58.492Z,80.10
2019-01-28T11:44:29.907Z,80.10
2019-01-28T11:47:01.543Z,80.10
2019-01-28T11:49:33.213Z,79.80
2019-01-28T11:52:04.674Z,79.80
2019-01-28T11:54:36.142Z,79.90
2019-01-28T11:57:07.541Z,79.80
2019-01-28T11:59:38.959Z,79.50
2019-01-28T12:02:10.405Z,78.80
2019-01-28T12:04:41.817Z,78.70
2019-01-28T12:07:13.341Z,78.40
2019-01-28T12:09:44.822Z,78.00
2019-01-28T12:12:16.371Z,77.70
2019-01-28T12:14:47.879Z,77.50
2019-01-28T12:17:19.392Z,77.20
2019-01-28T12:19:50.892Z,76.80
2019-01-28T12:22:22.386Z,76.70
2019-01-28T12:24:53.905Z,76.40
2019-01-28T12:27:25.363Z,76.30
2019-01-28T12:29:56.817Z,76.80
2019-01-28T12:32:28.355Z,76.80
2019-01-28T12:34:59.824Z,77.30
2019-01-28T12:37:32.443Z,76.90
2019-01-28T12:40:04.998Z,76.60
2019-01-28T12:42:36.503Z,76.40
2019-01-28T12:45:09.810Z,76.20
2019-01-28T12:47:41.360Z,75.90
2019-01-28T12:50:13.099Z,75.60
2019-01-28T12:52:44.605Z,75.50
2019-01-28T12:55:17.312Z,75.20
2019-01-28T12:57:48.734Z,75.00
2019-01-28T13:00:23.419Z,76.10
2019-01-28T13:02:54.903Z,75.50
2019-01-28T13:05:26.661Z,75.60
2019-01-28T13:07:58.483Z,75.40
2019-01-28T13:10:29.894Z,75.20
2019-01-28T13:13:01.398Z,75.10
2019-01-28T13:15:32.899Z,75.80
2019-01-28T13:18:04.684Z,74.70
2019-01-28T13:20:37.194Z,74.40
2019-01-28T13:23:08.674Z,74.80
2019-01-28T13:25:40.173Z,74.40
2019-01-28T13:28:11.596Z,74.20
2019-01-28T13:30:43.116Z,74.30
2019-01-28T13:33:16.476Z,73.90
2019-01-28T13:35:47.920Z,73.70
2019-01-28T13:38:19.481Z,73.50
2019-01-28T13:40:50.903Z,73.70
2019-01-28T13:43:22.333Z,73.70
2019-01-28T13:45:53.800Z,74.00
2019-01-28T13:48:25.253Z,74.10
2019-01-28T13:50:56.696Z,74.20
2019-01-28T13:53:28.289Z,74.60
2019-01-28T13:55:59.735Z,73.80
2019-01-28T13:58:31.229Z,73.70
2019-01-28T14:01:02.831Z,73.70
2019-01-28T14:03:34.234Z,73.50
2019-01-28T14:06:05.872Z,74.00
2019-01-28T14:08:37.316Z,74.50
2019-01-28T14:11:08.756Z,74.80
2019-01-28T14:13:40.389Z,74.80
2019-01-28T14:16:11.845Z,75.00
2019-01-28T14:18:43.303Z,75.40
2019-01-28T14:21:14.753Z,75.50
2019-01-28T14:23:46.181Z,75.80
2019-01-28T14:26:17.722Z,76.10
2019-01-28T14:28:49.191Z,76.30
2019-01-28T14:31:20.608Z,76.50
2019-01-28T14:33:52.064Z,76.60
2019-01-28T14:36:23.515Z,76.70
2019-01-28T14:38:55.019Z,76.80
2019-01-28T14:41:26.595Z,76.70
2019-01-28T14:43:58.114Z,76.60
2019-01-28T14:46:29.603Z,76.60
2019-01-28T14:49:01.194Z,76.50
2019-01-28T14:51:32.638Z,76.20
2019-01-28T14:54:04.279Z,76.10
2019-01-28T14:56:35.725Z,75.70
2019-01-28T14:59:07.212Z,75.50
2019-01-28T15:01:38.666Z,75.50
2019-01-28T15:04:10.314Z,75.20
2019-01-28T15:06:41.748Z,75.10
2019-01-28T15:09:13.486Z,75.10
2019-01-28T15:11:44.988Z,75.00
2019-01-28T15:14:16.432Z,75.30
2019-01-28T15:16:47.921Z,75.40
2019-01-28T15:19:19.408Z,75.40
2019-01-28T15:21:50.931Z,75.20
2019-01-28T15:24:22.330Z,75.10
2019-01-28T15:26:53.960Z,75.10
2019-01-28T15:29:25.472Z,75.20
2019-01-28T15:31:56.874Z,75.40
2019-01-28T15:34:28.394Z,75.60
2019-01-28T15:36:59.855Z,75.70
2019-01-28T15:39:31.257Z,75.70
2019-01-28T15:42:02.700Z,75.90
2019-01-28T15:44:34.188Z,76.10
2019-01-28T15:47:05.838Z,77.10
2019-01-28T15:49:37.254Z,76.60
2019-01-28T15:52:08.725Z,76.90
2019-01-28T15:54:40.198Z,76.90
2019-01-28T15:57:11.765Z,77.00
2019-01-28T15:59:43.182Z,77.10
2019-01-28T16:02:14.753Z,77.20
2019-01-28T16:04:46.172Z,77.10
2019-01-28T16:07:17.614Z,77.10
2019-01-28T16:09:49.097Z,77.10
2019-01-28T16:12:20.652Z,76.90
2019-01-28T16:14:52.124Z,77.30
2019-01-28T16:17:23.940Z,77.30
2019-01-28T16:19:55.529Z,77.40
2019-01-28T16:22:26.925Z,77.40
2019-01-28T16:24:58.316Z,77.60
2019-01-28T16:27:29.866Z,77.70
2019-01-28T16:30:01.419Z,77.80
2019-01-28T16:32:33.011Z,77.80
2019-01-28T16:35:04.799Z,77.90
2019-01-28T16:37:36.329Z,78.00
2019-01-28T16:40:09.787Z,78.00
2019-01-28T16:42:42.371Z,77.90
2019-01-28T16:45:15.058Z,78.10
2019-01-28T16:47:46.894Z,77.80
2019-01-28T16:50:26.785Z,78.10
2019-01-28T16:52:54.203Z,78.60
2019-01-28T16:55:25.693Z,78.30
2019-01-28T16:57:57.857Z,77.90
2019-01-28T17:00:31.581Z,77.40
2019-01-28T17:03:03.178Z,77.30
2019-01-28T17:05:34.652Z,77.30
2019-01-28T17:08:06.701Z,77.00
2019-01-28T17:10:38.498Z,77.20
2019-01-28T17:13:10.369Z,77.20
2019-01-28T17:15:41.882Z,77.30
2019-01-28T17:18:13.390Z,77.30
2019-01-28T17:20:44.878Z,77.40
2019-01-28T17:23:16.425Z,77.30
2019-01-28T17:25:49.309Z,77.30
2019-01-28T17:28:20.821Z,77.50
2019-01-28T17:30:52.567Z,77.80
2019-01-28T17:33:24.136Z,78.20
2019-01-28T17:35:55.565Z,78.30
2019-01-28T17:38:27.173Z,78.40
2019-01-28T17:40:58.646Z,78.60
2019-01-28T17:43:30.228Z,79.30
2019-01-28T17:46:01.740Z,78.60
2019-01-28T17:48:33.344Z,78.80
2019-01-28T17:51:04.925Z,79.00
2019-01-28T17:53:36.372Z,78.60
2019-01-28T17:56:07.895Z,78.50
2019-01-28T17:58:39.328Z,78.50
2019-01-28T18:01:10.850Z,78.50
2019-01-28T18:03:42.310Z,78.30
2019-01-28T18:06:13.772Z,78.50
2019-01-28T18:08:45.256Z,78.60
2019-01-28T18:11:16.813Z,78.60
2019-01-28T18:13:48.336Z,78.50
2019-01-28T18:16:19.949Z,78.10
2019-01-28T18:18:51.416Z,78.00
2019-01-28T18:21:23.508Z,77.90
2019-01-28T18:23:55.327Z,77.90
2019-01-28T18:26:26.781Z,77.90
2019-01-28T18:28:58.223Z,77.70
2019-01-28T18:31:29.783Z,77.70
2019-01-28T18:34:01.246Z,77.90
2019-01-28T18:36:32.782Z,78.30
2019-01-28T18:39:06.173Z,78.40
2019-01-28T18:41:37.852Z,78.00
2019-01-28T18:44:09.930Z,77.10
2019-01-28T18:46:42.559Z,76.90
2019-01-28T18:49:15.675Z,77.00
2019-01-28T18:51:47.435Z,76.90
2019-01-28T18:54:18.992Z,76.90
2019-01-28T18:56:50.541Z,76.90
2019-01-28T18:59:22.059Z,76.80
2019-01-28T19:01:53.615Z,76.60
2019-01-28T19:04:25.322Z,76.50
2019-01-28T19:07:19.816Z,77.00
2019-01-28T19:10:10.233Z,77.00
2019-01-28T19:12:57.014Z,76.40
2019-01-28T19:15:50.506Z,75.80
2019-01-28T19:18:39.484Z,75.50
2019-01-28T19:21:17.804Z,75.60
2019-01-28T19:23:49.274Z,75.60
2019-01-28T19:26:20.703Z,75.40
2019-01-28T19:28:52.253Z,75.30
2019-01-28T19:31:23.685Z,74.40
2019-01-28T19:33:55.334Z,75.40
2019-01-28T19:36:26.880Z,75.30
2019-01-28T19:38:58.518Z,75.20
2019-01-28T19:41:29.995Z,75.10
2019-01-28T19:44:01.521Z,74.90
2019-01-28T19:46:32.934Z,74.90
2019-01-28T19:49:04.649Z,74.50
2019-01-28T19:51:36.281Z,74.30
2019-01-28T19:54:08.108Z,74.30
2019-01-28T19:56:39.676Z,74.30
2019-01-28T19:59:11.165Z,74.20
2019-01-28T20:01:42.682Z,74.20
2019-01-28T20:04:14.187Z,74.20
2019-01-28T20:06:45.846Z,74.20
2019-01-28T20:09:17.411Z,74.00
2019-01-28T20:11:48.982Z,74.00
2019-01-28T20:14:21.063Z,74.10
2019-01-28T20:16:52.810Z,74.20
2019-01-28T20:19:24.417Z,74.10
2019-01-28T20:21:55.877Z,73.70
2019-01-28T20:24:27.482Z,74.00
2019-01-28T20:26:59.033Z,73.90
2019-01-28T20:29:30.669Z,73.30
2019-01-28T20:32:02.197Z,72.80
2019-01-28T20:34:33.719Z,71.80
2019-01-28T20:37:05.359Z,71.80
2019-01-28T20:39:37.763Z,71.30
2019-01-28T20:42:09.165Z,70.60
2019-01-28T20:44:40.642Z,70.40
2019-01-28T20:47:12.209Z,69.60
2019-01-28T20:49:43.800Z,69.40
2019-01-28T20:52:15.386Z,68.70
2019-01-28T20:54:47.089Z,69.10
2019-01-28T20:57:18.702Z,68.70
2019-01-28T20:59:51.243Z,68.00
2019-01-28T21:02:22.939Z,68.10
2019-01-28T21:04:54.416Z,68.10
2019-01-28T21:07:25.920Z,68.00
2019-01-28T21:09:57.502Z,68.20
2019-01-28T21:12:29.930Z,68.30
2019-01-28T21:15:01.404Z,68.60
2019-01-28T21:17:33.774Z,69.20
2019-01-28T21:20:07.248Z,68.30
2019-01-28T21:22:38.728Z,68.50
2019-01-28T21:25:13.045Z,68.10
2019-01-28T21:27:44.582Z,68.00
2019-01-28T21:30:28.058Z,68.00
2019-01-28T21:32:59.490Z,68.10
2019-01-28T21:36:08.381Z,68.20
2019-01-28T21:38:45.774Z,68.20
2019-01-28T21:41:22.872Z,68.20
2019-01-28T21:43:54.479Z,68.00
2019-01-28T21:46:26.500Z,68.10
2019-01-28T21:48:58.195Z,68.00
2019-01-28T21:51:29.717Z,67.20
2019-01-28T21:54:01.262Z,67.20
2019-01-28T21:56:33.056Z,67.40
2019-01-28T21:59:04.739Z,67.50
2019-01-28T22:01:36.201Z,67.80
2019-01-28T22:04:08.253Z,68.00
2019-01-28T22:06:39.977Z,68.30
2019-01-28T22:09:11.625Z,68.20
2019-01-28T22:11:43.108Z,68.90
2019-01-28T22:14:14.657Z,68.80
2019-01-28T22:16:46.139Z,69.20
2019-01-28T22:19:17.725Z,69.60
2019-01-28T22:21:50.012Z,69.90
2019-01-28T22:24:21.447Z,70.20
2019-01-28T22:26:53.881Z,70.50
2019-01-28T22:29:25.466Z,70.60
2019-01-28T22:31:56.952Z,71.30
2019-01-28T22:34:28.457Z,71.20
2019-01-28T22:36:59.951Z,71.80
2019-01-28T22:39:31.520Z,71.90
2019-01-28T22:42:03.691Z,72.20
2019-01-28T22:44:37.169Z,72.40
2019-01-28T22:47:08.616Z,72.60
2019-01-28T22:49:40.236Z,73.00
2019-01-28T22:52:11.773Z,73.50
2019-01-28T22:54:43.383Z,73.70
2019-01-28T22:57:15.007Z,74.00
2019-01-28T22:59:46.578Z,74.30
2019-01-28T23:02:18.117Z,74.40
2019-01-28T23:04:49.580Z,74.80
2019-01-28T23:07:21.009Z,74.90
2019-01-28T23:09:52.394Z,75.40
2019-01-28T23:12:23.818Z,75.80
2019-01-28T23:14:55.235Z,76.10
2019-01-28T23:17:26.765Z,76.10
2019-01-28T23:19:59.949Z,76.10
2019-01-28T23:22:33.259Z,76.70
2019-01-28T23:25:05.961Z,76.90
2019-01-28T23:27:37.410Z,77.20
2019-01-28T23:30:10.347Z,77.40
2019-01-28T23:32:41.732Z,78.10
2019-01-28T23:35:13.492Z,78.30
2019-01-28T23:37:44.961Z,78.80
2019-01-28T23:40:16.409Z,78.70
2019-01-28T23:42:48.505Z,79.00
2019-01-28T23:45:19.903Z,79.60
2019-01-28T23:47:51.340Z,80.00
2019-01-28T23:50:22.761Z,80.20
2019-01-28T23:52:54.244Z,80.20
2019-01-28T23:55:25.720Z,80.40
2019-01-28T23:57:57.408Z,80.60
